Time;durP1;ratioP1;P1;durP2;ratioP2;P2;SDS_P1;SDS_P2;PMS_P1;PMS_P2;Temp;Humidity;BMP_temperature;BMP_pressure;BME280_temperature;BME280_humidity;BME280_pressure;Samples;Min_cycle;Max_cycle;Signal;HPM_P1;HPM_P2
2023/10/30 00:00:42;;;;;;;14.20;13.60;;;;;;;11.20;100.00;99369.38;5049851;28;20451;-38
2023/10/30 00:03:11;;;;;;;14.17;13.60;;;;;;;11.18;100.00;99374.13;5050014;28;20470;-39
2023/10/30 00:05:39;;;;;;;13.73;13.23;;;;;;;11.19;100.00;99373.09;5050178;28;20918;-39
2023/10/30 00:08:07;;;;;;;13.20;12.50;;;;;;;11.18;100.00;99371.44;5050094;28;20551;-40
2023/10/30 00:10:35;;;;;;;13.20;12.57;;;;;;;11.19;100.00;99381.91;5049384;28;20482;-40
2023/10/30 00:13:02;;;;;;;14.10;13.27;;;;;;;11.20;100.00;99378.19;5050398;28;20427;-41
2023/10/30 00:15:30;;;;;;;13.87;13.07;;;;;;;11.19;100.00;99384.56;5049928;28;20463;-43
2023/10/30 00:17:58;;;;;;;13.90;13.10;;;;;;;11.20;100.00;99388.84;5049886;28;20892;-39
2023/10/30 00:20:27;;;;;;;12.87;12.37;;;;;;;11.21;100.00;99395.00;5049969;28;20838;-39
2023/10/30 00:22:55;;;;;;;12.90;12.10;;;;;;;11.23;100.00;99400.94;5050139;28;20795;-38
2023/10/30 00:25:23;;;;;;;13.10;12.50;;;;;;;11.25;100.00;99407.66;5050073;28;20844;-39
2023/10/30 00:27:50;;;;;;;14.10;13.50;;;;;;;11.25;100.00;99414.84;5049594;28;20998;-40
2023/10/30 00:30:19;;;;;;;13.40;12.80;;;;;;;11.23;100.00;99419.63;5049310;28;20451;-37
2023/10/30 00:32:47;;;;;;;14.20;13.40;;;;;;;11.24;100.00;99422.03;5050527;28;20526;-39
2023/10/30 00:35:15;;;;;;;13.37;12.70;;;;;;;11.21;100.00;99427.03;5050183;28;20474;-40
2023/10/30 00:37:44;;;;;;;14.50;13.50;;;;;;;11.24;100.00;99424.72;5052673;28;20459;-41
2023/10/30 00:40:13;;;;;;;13.93;13.40;;;;;;;11.26;100.00;99448.50;5053017;28;20559;-39
2023/10/30 00:42:40;;;;;;;14.33;13.20;;;;;;;11.26;100.00;99451.19;5053700;28;20768;-38
2023/10/30 00:45:10;;;;;;;13.33;12.37;;;;;;;11.25;100.00;99454.88;5053451;28;20542;-38
2023/10/30 00:47:39;;;;;;;12.90;12.20;;;;;;;11.25;100.00;99455.69;5053289;28;20505;-39
2023/10/30 00:50:08;;;;;;;13.97;12.90;;;;;;;11.27;100.00;99453.59;5045031;28;20467;-41
2023/10/30 00:52:36;;;;;;;13.77;12.73;;;;;;;11.30;100.00;99463.81;5053805;28;20435;-37
2023/10/30 00:55:05;;;;;;;13.50;12.80;;;;;;;11.30;100.00;99461.13;5053215;28;21084;-39
2023/10/30 00:57:33;;;;;;;14.20;13.50;;;;;;;11.30;100.00;99471.81;5053002;28;20792;-39
2023/10/30 01:00:01;;;;;;;13.47;12.60;;;;;;;11.32;100.00;99479.59;5052607;28;21013;-39
2023/10/30 01:02:29;;;;;;;14.17;13.40;;;;;;;11.31;100.00;99484.13;5053132;28;20462;-39
2023/10/30 01:04:57;;;;;;;13.10;12.50;;;;;;;11.33;100.00;99479.34;5052258;28;20519;-38
2023/10/30 01:07:25;;;;;;;13.73;12.70;;;;;;;11.33;100.00;99491.88;5052688;28;20479;-38
2023/10/30 01:09:53;;;;;;;14.70;13.50;;;;;;;11.31;100.00;99492.13;5052661;28;20858;-41
2023/10/30 01:12:22;;;;;;;14.30;13.40;;;;;;;11.35;100.00;99485.28;5053579;28;20462;-40
2023/10/30 01:14:49;;;;;;;14.97;14.00;;;;;;;11.34;100.00;99497.00;5052920;28;20787;-39
2023/10/30 01:17:17;;;;;;;14.63;13.50;;;;;;;11.35;100.00;99498.63;5052343;28;20482;-43
2023/10/30 01:19:45;;;;;;;13.87;12.90;;;;;;;11.34;100.00;99498.84;5051923;28;20467;-44
2023/10/30 01:22:13;;;;;;;13.73;12.77;;;;;;;11.36;100.00;99508.25;5052881;28;21001;-38
2023/10/30 01:24:41;;;;;;;13.47;12.70;;;;;;;11.35;100.00;99505.84;5052879;28;20484;-41
2023/10/30 01:27:09;;;;;;;14.37;13.53;;;;;;;11.34;100.00;99499.69;5052606;28;20539;-38
2023/10/30 01:29:38;;;;;;;13.87;12.77;;;;;;;11.31;100.00;99507.34;5051820;28;21089;-41
2023/10/30 01:32:06;;;;;;;14.83;13.60;;;;;;;11.31;100.00;99515.34;5052270;28;20872;-40
2023/10/30 01:34:34;;;;;;;14.13;13.43;;;;;;;11.31;100.00;99516.16;5052400;28;20951;-43
2023/10/30 01:37:02;;;;;;;14.90;13.73;;;;;;;11.30;100.00;99511.84;5052187;28;20537;-41
2023/10/30 01:39:30;;;;;;;15.43;14.00;;;;;;;11.29;100.00;99523.56;5052070;28;20517;-40
2023/10/30 01:41:57;;;;;;;15.37;14.30;;;;;;;11.28;100.00;99515.78;5052209;28;21024;-38
2023/10/30 01:44:25;;;;;;;15.17;14.00;;;;;;;11.29;100.00;99528.09;5052241;28;20772;-39
2023/10/30 01:46:54;;;;;;;13.60;12.80;;;;;;;11.31;100.00;99526.81;5052328;28;20875;-39
2023/10/30 01:49:22;;;;;;;14.87;14.00;;;;;;;11.32;100.00;99531.09;5051907;28;20550;-39
2023/10/30 01:51:50;;;;;;;15.40;13.93;;;;;;;11.30;100.00;99535.88;5051910;28;20459;-38
2023/10/30 01:54:18;;;;;;;14.53;13.73;;;;;;;11.31;100.00;99529.50;5051827;28;21006;-40
2023/10/30 01:56:46;;;;;;;15.70;13.53;;;;;;;11.33;100.00;99534.59;5051447;28;20510;-37
2023/10/30 01:59:14;;;;;;;14.93;13.70;;;;;;;11.34;100.00;99536.22;5051847;28;20869;-40
2023/10/30 02:01:42;;;;;;;14.23;13.20;;;;;;;11.35;100.00;99532.53;5051904;28;20847;-40
2023/10/30 02:04:12;;;;;;;14.67;13.43;;;;;;;11.37;100.00;99546.44;5051938;28;20435;-38
2023/10/30 02:06:40;;;;;;;14.90;13.70;;;;;;;11.37;100.00;99541.09;5051576;28;20538;-38
2023/10/30 02:09:08;;;;;;;15.83;14.20;;;;;;;11.38;100.00;99548.06;5051385;28;20874;-38
2023/10/30 02:11:35;;;;;;;15.63;14.63;;;;;;;11.37;100.00;99543.78;5051798;28;20975;-40
2023/10/30 02:14:03;;;;;;;15.67;14.57;;;;;;;11.33;100.00;99551.44;5052065;28;20475;-40
2023/10/30 02:16:31;;;;;;;14.90;13.90;;;;;;;11.27;100.00;99548.84;5051775;28;20503;-39
2023/10/30 02:18:59;;;;;;;15.97;14.70;;;;;;;11.20;100.00;99551.63;5050322;28;20459;-38
2023/10/30 02:21:28;;;;;;;16.57;14.97;;;;;;;11.16;100.00;99560.31;5051511;28;20522;-38
2023/10/30 02:24:05;;;;;;;16.13;14.77;;;;;;;11.09;100.00;99560.41;5051426;28;20427;-39
2023/10/30 02:26:34;;;;;;;16.07;14.00;;;;;;;11.06;100.00;99563.53;5050089;28;20497;-40
2023/10/30 02:29:05;;;;;;;14.87;13.60;;;;;;;11.05;100.00;99556.59;5050743;28;20489;-41
2023/10/30 02:31:33;;;;;;;17.90;14.50;;;;;;;11.06;100.00;99571.56;5050988;28;20432;-39
2023/10/30 02:34:01;;;;;;;15.40;14.30;;;;;;;11.05;100.00;99578.72;5050947;28;20810;-38
2023/10/30 02:36:29;;;;;;;17.57;13.77;;;;;;;11.06;100.00;99575.03;5051140;28;20566;-40
2023/10/30 02:38:57;;;;;;;13.80;12.60;;;;;;;11.05;100.00;99575.28;5050954;28;20475;-39
2023/10/30 02:41:29;;;;;;;13.73;12.73;;;;;;;11.10;100.00;99573.56;5051408;28;20810;-41
2023/10/30 02:43:58;;;;;;;16.00;14.30;;;;;;;11.11;100.00;99579.66;5050837;28;20440;-41
2023/10/30 02:46:26;;;;;;;14.57;13.50;;;;;;;11.11;100.00;99574.34;5050951;28;20501;-40
2023/10/30 02:48:54;;;;;;;15.30;13.80;;;;;;;11.08;100.00;99574.78;5050395;28;21009;-40
2023/10/30 02:51:22;;;;;;;14.70;13.90;;;;;;;11.10;100.00;99578.06;5050415;28;20467;-40
2023/10/30 02:53:50;;;;;;;13.97;13.10;;;;;;;11.09;100.00;99581.75;5050929;28;20858;-38
2023/10/30 02:56:18;;;;;;;14.30;13.47;;;;;;;11.05;100.00;99581.41;5050940;28;20455;-39
2023/10/30 02:58:45;;;;;;;17.37;15.40;;;;;;;10.96;100.00;99588.09;5049679;28;20463;-39
2023/10/30 03:01:14;;;;;;;14.90;13.73;;;;;;;10.85;100.00;99580.06;5050973;28;20441;-39
2023/10/30 03:03:42;;;;;;;15.23;14.00;;;;;;;10.78;100.00;99588.13;5050697;28;20522;-42
2023/10/30 03:06:10;;;;;;;15.00;14.07;;;;;;;10.66;100.00;99581.97;5050369;28;20439;-40
2023/10/30 03:08:38;;;;;;;15.13;14.30;;;;;;;10.61;100.00;99591.66;5050360;28;20497;-39
2023/10/30 03:11:05;;;;;;;14.90;13.73;;;;;;;10.53;100.00;99593.59;5049563;28;20435;-40
2023/10/30 03:13:33;;;;;;;15.00;13.93;;;;;;;10.47;100.00;99593.69;5050297;28;20934;-40
2023/10/30 03:16:00;;;;;;;15.63;14.30;;;;;;;10.40;100.00;99608.94;5050128;28;20437;-40
2023/10/30 03:18:30;;;;;;;16.40;15.30;;;;;;;10.35;100.00;99600.78;5048599;28;20473;-39
2023/10/30 03:20:58;;;;;;;20.07;15.87;;;;;;;10.26;100.00;99607.47;5050056;28;20467;-40
2023/10/30 03:23:25;;;;;;;14.90;14.10;;;;;;;10.16;100.00;99605.31;5050657;28;20467;-40
2023/10/30 03:25:54;;;;;;;16.20;15.00;;;;;;;10.15;100.00;99614.34;5050031;28;20858;-37
2023/10/30 03:28:22;;;;;;;15.80;14.30;;;;;;;10.09;100.00;99612.53;5049686;28;20474;-41
2023/10/30 03:30:49;;;;;;;15.63;14.83;;;;;;;10.06;100.00;99612.97;5050063;28;20444;-42
2023/10/30 03:33:20;;;;;;;16.20;14.87;;;;;;;10.01;100.00;99623.44;5049972;28;20436;-38
2023/10/30 03:35:49;;;;;;;14.20;13.20;;;;;;;9.97;100.00;99623.06;5049809;28;20931;-38
2023/10/30 03:38:17;;;;;;;15.77;14.13;;;;;;;9.97;100.00;99632.94;5049763;28;20482;-40
2023/10/30 03:40:44;;;;;;;14.73;13.70;;;;;;;9.91;100.00;99631.16;5049623;28;20827;-38
2023/10/30 03:43:14;;;;;;;15.90;14.33;;;;;;;9.88;100.00;99623.59;5049925;28;20435;-43
2023/10/30 03:45:43;;;;;;;14.63;13.60;;;;;;;9.85;100.00;99635.50;5049882;28;20994;-38
2023/10/30 03:48:11;;;;;;;14.23;13.13;;;;;;;9.84;100.00;99638.38;5049127;28;20451;-40
2023/10/30 03:50:38;;;;;;;15.03;13.70;;;;;;;9.82;100.00;99627.13;5049716;28;20447;-39
2023/10/30 03:53:07;;;;;;;14.30;13.47;;;;;;;9.77;100.00;99627.78;5049468;28;20431;-39
2023/10/30 03:55:35;;;;;;;14.50;13.40;;;;;;;9.71;100.00;99623.31;5049868;28;20917;-37
2023/10/30 03:58:04;;;;;;;14.70;13.80;;;;;;;9.67;100.00;99635.44;5050087;28;20570;-38
2023/10/30 04:00:32;;;;;;;14.40;13.60;;;;;;;9.64;100.00;99627.09;5049679;28;20459;-40
2023/10/30 04:03:00;;;;;;;14.57;13.70;;;;;;;9.61;100.00;99628.34;5049622;28;20521;-40
2023/10/30 04:05:27;;;;;;;15.50;14.40;;;;;;;9.57;100.00;99636.94;5050040;28;20435;-40
2023/10/30 04:07:55;;;;;;;15.70;14.63;;;;;;;9.55;100.00;99644.34;5049501;28;20601;-40
2023/10/30 04:10:24;;;;;;;15.87;14.33;;;;;;;9.51;100.00;99632.50;5049331;28;20541;-42
2023/10/30 04:12:52;;;;;;;15.23;14.40;;;;;;;9.50;100.00;99641.53;5053322;28;20847;-39
2023/10/30 04:15:20;;;;;;;14.53;13.80;;;;;;;9.48;100.00;99641.72;5053556;28;20438;-38
2023/10/30 04:17:47;;;;;;;15.20;14.37;;;;;;;9.43;100.00;99645.06;5053021;28;20841;-40
2023/10/30 04:20:15;;;;;;;15.73;14.67;;;;;;;9.44;100.00;99644.00;5053218;28;20467;-38
2023/10/30 04:22:43;;;;;;;14.47;13.87;;;;;;;9.42;100.00;99651.41;5053307;28;20431;-40
2023/10/30 04:25:11;;;;;;;15.90;14.80;;;;;;;9.41;100.00;99652.41;5053636;28;20427;-38
2023/10/30 04:27:40;;;;;;;13.50;12.47;;;;;;;9.41;100.00;99651.59;5053191;28;20553;-39
2023/10/30 04:30:10;;;;;;;13.63;13.07;;;;;;;9.39;100.00;99659.81;5053033;28;20993;-43
2023/10/30 04:32:37;;;;;;;15.00;14.00;;;;;;;9.40;100.00;99660.63;5053280;28;20431;-40
2023/10/30 04:35:05;;;;;;;14.07;13.30;;;;;;;9.38;100.00;99658.16;5052851;28;20435;-40
2023/10/30 04:37:34;;;;;;;14.07;13.17;;;;;;;9.40;100.00;99672.09;5052675;28;20819;-41
2023/10/30 04:40:02;;;;;;;13.93;13.33;;;;;;;9.42;100.00;99671.88;5052250;28;20529;-41
2023/10/30 04:42:30;;;;;;;15.40;14.43;;;;;;;9.45;100.00;99652.81;5053270;28;20437;-40
2023/10/30 04:45:00;;;;;;;14.27;13.03;;;;;;;9.51;100.00;99664.44;5052969;28;20514;-38
2023/10/30 04:47:28;;;;;;;12.97;12.40;;;;;;;9.55;100.00;99670.97;5053291;28;20546;-40
2023/10/30 04:49:56;;;;;;;13.10;12.47;;;;;;;9.59;100.00;99670.31;5052357;28;20542;-39
2023/10/30 04:52:25;;;;;;;12.07;11.57;;;;;;;9.65;100.00;99663.28;5051075;28;20436;-43
2023/10/30 04:54:53;;;;;;;12.90;12.30;;;;;;;9.68;100.00;99666.34;5052241;28;20504;-38
2023/10/30 04:57:21;;;;;;;13.90;13.20;;;;;;;9.69;100.00;99667.97;5051684;28;20454;-39
2023/10/30 04:59:48;;;;;;;14.20;13.50;;;;;;;9.66;100.00;99668.41;5050859;28;20459;-41
2023/10/30 05:02:18;;;;;;;14.30;13.43;;;;;;;9.64;100.00;99667.84;5051654;28;20454;-42
2023/10/30 05:04:46;;;;;;;13.57;12.90;;;;;;;9.63;100.00;99670.69;5051287;28;20518;-37
2023/10/30 05:07:14;;;;;;;13.27;12.80;;;;;;;9.59;100.00;99670.31;5051214;28;21018;-40
2023/10/30 05:09:42;;;;;;;13.27;12.57;;;;;;;9.56;100.00;99669.94;5050561;28;20977;-43
2023/10/30 05:12:09;;;;;;;14.23;13.50;;;;;;;9.52;100.00;99666.91;5052048;28;20968;-37
2023/10/30 05:14:37;;;;;;;13.40;12.70;;;;;;;9.50;100.00;99663.59;5051545;28;20890;-38
2023/10/30 05:17:05;;;;;;;14.67;13.33;;;;;;;9.48;100.00;99664.88;5051031;28;20966;-40
2023/10/30 05:19:34;;;;;;;14.40;13.60;;;;;;;9.46;100.00;99670.41;5050940;28;20467;-43
2023/10/30 05:22:02;;;;;;;13.37;12.80;;;;;;;9.42;100.00;99674.53;5050942;28;20431;-39
2023/10/30 05:24:29;;;;;;;14.07;13.27;;;;;;;9.43;100.00;99682.31;5052024;28;20462;-38
2023/10/30 05:26:57;;;;;;;14.17;13.37;;;;;;;9.43;100.00;99671.66;5051347;28;20512;-40
2023/10/30 05:29:25;;;;;;;13.83;13.20;;;;;;;9.42;100.00;99680.66;5052007;28;20542;-40
2023/10/30 05:31:52;;;;;;;14.30;13.40;;;;;;;9.46;100.00;99675.75;5052454;28;20470;-41
2023/10/30 05:34:20;;;;;;;15.70;14.53;;;;;;;9.47;100.00;99676.56;5052194;28;20432;-38
2023/10/30 05:36:49;;;;;;;14.80;13.70;;;;;;;9.48;100.00;99672.84;5051454;28;20447;-38
2023/10/30 05:39:17;;;;;;;14.57;13.40;;;;;;;9.51;100.00;99672.41;5049629;28;20471;-41
2023/10/30 05:41:44;;;;;;;14.03;13.23;;;;;;;9.53;100.00;99676.50;5051896;28;20435;-39
2023/10/30 05:44:12;;;;;;;14.13;13.43;;;;;;;9.58;100.00;99683.84;5051844;28;20489;-40
2023/10/30 05:46:40;;;;;;;14.23;13.20;;;;;;;9.59;100.00;99682.81;5051165;28;20461;-40
2023/10/30 05:49:08;;;;;;;13.00;12.40;;;;;;;9.63;100.00;99676.00;5051653;28;20814;-37
2023/10/30 05:51:36;;;;;;;12.50;11.60;;;;;;;9.70;100.00;99684.78;5051750;28;20524;-39
2023/10/30 05:54:05;;;;;;;12.53;11.77;;;;;;;9.76;100.00;99692.72;5051263;28;20541;-38
2023/10/30 05:56:33;;;;;;;12.93;12.03;;;;;;;9.81;100.00;99686.72;5050660;28;20455;-37
2023/10/30 05:59:01;;;;;;;12.37;11.77;;;;;;;9.86;100.00;99692.22;5050919;28;20538;-37
2023/10/30 06:01:29;;;;;;;12.30;11.67;;;;;;;9.88;100.00;99691.00;5050678;28;20926;-44
2023/10/30 06:03:57;;;;;;;12.73;11.90;;;;;;;9.90;100.00;99688.91;5051695;28;20849;-38
2023/10/30 06:06:25;;;;;;;13.07;12.17;;;;;;;9.90;100.00;99694.25;5050799;28;20447;-38
2023/10/30 06:08:53;;;;;;;14.60;13.13;;;;;;;9.89;100.00;99695.25;5050926;28;20451;-39
2023/10/30 06:11:22;;;;;;;13.20;12.50;;;;;;;9.89;100.00;99697.09;5050800;28;20480;-39
2023/10/30 06:13:49;;;;;;;14.33;13.50;;;;;;;9.88;100.00;99690.16;5050921;28;20438;-41
2023/10/30 06:16:19;;;;;;;15.50;14.20;;;;;;;9.88;100.00;99696.31;5049484;28;20532;-44
2023/10/30 06:18:47;;;;;;;15.10;13.70;;;;;;;9.85;100.00;99679.94;5049100;28;20478;-40
2023/10/30 06:21:15;;;;;;;14.97;14.20;;;;;;;9.85;100.00;99690.59;5050418;28;20782;-41
2023/10/30 06:23:43;;;;;;;15.70;14.50;;;;;;;9.86;100.00;99694.88;5050309;28;20523;-40
2023/10/30 06:26:12;;;;;;;15.50;14.60;;;;;;;9.84;100.00;99688.97;5050450;28;20441;-40
2023/10/30 06:28:41;;;;;;;14.93;14.10;;;;;;;9.83;100.00;99703.28;5049760;28;20439;-41
2023/10/30 06:31:14;;;;;;;15.43;14.30;;;;;;;9.81;100.00;99694.72;5050944;28;20510;-38
2023/10/30 06:33:43;;;;;;;14.53;13.70;;;;;;;9.80;100.00;99693.91;5049473;28;20989;-39
2023/10/30 06:36:10;;;;;;;16.27;14.90;;;;;;;9.78;100.00;99700.47;5050275;28;20442;-39
2023/10/30 06:38:38;;;;;;;15.63;14.13;;;;;;;9.76;100.00;99706.03;5049576;28;21002;-40
2023/10/30 06:41:07;;;;;;;14.90;13.90;;;;;;;9.77;100.00;99712.16;5049299;28;20785;-41
2023/10/30 06:43:35;;;;;;;15.47;13.93;;;;;;;9.76;100.00;99714.03;5049074;28;20484;-40
2023/10/30 06:46:05;;;;;;;14.40;13.60;;;;;;;9.74;100.00;99715.25;5049696;28;20448;-38
2023/10/30 06:48:33;;;;;;;14.60;13.80;;;;;;;9.75;100.00;99733.69;5049878;28;20438;-37
2023/10/30 06:51:01;;;;;;;15.47;14.37;;;;;;;9.73;100.00;99733.09;5049540;28;20510;-39
2023/10/30 06:53:29;;;;;;;15.40;14.30;;;;;;;9.74;100.00;99734.69;5049688;28;20435;-40
2023/10/30 06:55:58;;;;;;;15.27;13.70;;;;;;;9.78;100.00;99741.25;5050065;28;20798;-38
2023/10/30 06:58:25;;;;;;;16.37;14.87;;;;;;;9.82;100.00;99737.13;5049334;28;21060;-41
2023/10/30 07:01:01;;;;;;;15.20;13.90;;;;;;;9.94;100.00;99739.91;5049423;28;20431;-44
2023/10/30 07:03:32;;;;;;;14.90;13.37;;;;;;;10.06;100.00;99748.00;5050327;28;20438;-41
2023/10/30 07:06:00;;;;;;;14.67;13.87;;;;;;;10.11;100.00;99732.16;5049637;28;20485;-39
2023/10/30 07:08:28;;;;;;;14.97;14.10;;;;;;;10.13;100.00;99736.28;5048423;28;20419;-40
2023/10/30 07:10:56;;;;;;;14.60;13.70;;;;;;;10.17;100.00;99742.81;5049571;28;20489;-37
2023/10/30 07:13:24;;;;;;;14.77;13.77;;;;;;;10.18;100.00;99739.13;5049046;28;20518;-39
2023/10/30 07:15:52;;;;;;;13.80;12.90;;;;;;;10.23;100.00;99752.59;5049076;28;20463;-39
2023/10/30 07:18:19;;;;;;;13.93;12.90;;;;;;;10.32;100.00;99753.94;5048730;28;20535;-42
2023/10/30 07:20:49;;;;;;;14.13;12.80;;;;;;;10.33;100.00;99754.78;5049016;28;20525;-37
2023/10/30 07:23:17;;;;;;;14.33;13.10;;;;;;;10.45;100.00;99759.16;5049399;28;20470;-39
2023/10/30 07:25:45;;;;;;;14.00;12.60;;;;;;;10.54;100.00;99770.38;5049603;28;20456;-40
2023/10/30 07:28:16;;;;;;;14.30;13.00;;;;;;;10.55;100.00;99764.81;5047744;28;20465;-38
2023/10/30 07:30:44;;;;;;;14.20;12.93;;;;;;;10.65;100.00;99774.16;5048900;28;20485;-40
2023/10/30 07:33:12;;;;;;;14.63;13.70;;;;;;;10.70;100.00;99768.97;5050122;28;20856;-41
2023/10/30 07:35:40;;;;;;;13.97;13.07;;;;;;;10.78;100.00;99772.16;5048811;28;20527;-40
2023/10/30 07:38:09;;;;;;;14.83;13.80;;;;;;;10.83;100.00;99776.84;5049432;28;20870;-38
2023/10/30 07:40:37;;;;;;;13.63;12.60;;;;;;;10.82;100.00;99778.69;5048499;28;20554;-41
2023/10/30 07:43:05;;;;;;;16.43;13.30;;;;;;;10.91;100.00;99776.53;5048639;28;20439;-38
2023/10/30 07:45:33;;;;;;;12.97;11.97;;;;;;;11.00;100.00;99781.34;5051034;28;20496;-43
2023/10/30 07:48:00;;;;;;;12.27;11.50;;;;;;;11.06;100.00;99784.97;5052903;28;20447;-39
2023/10/30 07:50:28;;;;;;;13.90;12.77;;;;;;;11.11;100.00;99787.78;5052553;28;20451;-38
2023/10/30 07:52:56;;;;;;;15.53;12.80;;;;;;;11.23;100.00;99787.88;5053198;28;20527;-39
2023/10/30 07:55:25;;;;;;;12.90;12.10;;;;;;;11.22;100.00;99794.25;5053222;28;20465;-40
2023/10/30 07:57:53;;;;;;;12.67;11.67;;;;;;;11.27;100.00;99797.88;5051585;28;20478;-38
2023/10/30 08:00:21;;;;;;;14.47;13.23;;;;;;;11.35;100.00;99788.75;5052761;28;20467;-42
2023/10/30 08:02:49;;;;;;;14.00;13.13;;;;;;;11.37;100.00;99795.50;5052931;28;20525;-43
2023/10/30 08:05:17;;;;;;;15.07;13.67;;;;;;;11.32;100.00;99797.22;5053104;28;20453;-37
2023/10/30 08:07:45;;;;;;;13.23;12.10;;;;;;;11.34;100.00;99797.81;5053326;28;20451;-39
2023/10/30 08:10:13;;;;;;;13.53;12.60;;;;;;;11.39;100.00;99793.41;5053182;28;20459;-39
2023/10/30 08:12:42;;;;;;;14.97;13.40;;;;;;;11.46;100.00;99802.16;5053510;28;20992;-37
2023/10/30 08:15:10;;;;;;;15.53;12.93;;;;;;;11.53;100.00;99807.41;5053072;28;20477;-40
2023/10/30 08:17:38;;;;;;;14.20;13.20;;;;;;;11.58;100.00;99810.22;5052412;28;20482;-39
2023/10/30 08:20:09;;;;;;;16.40;15.03;;;;;;;11.70;100.00;99803.09;5052015;28;20517;-39
2023/10/30 08:22:38;;;;;;;14.00;12.97;;;;;;;11.75;100.00;99805.09;5044646;28;20439;-45
2023/10/30 08:25:06;;;;;;;14.93;13.93;;;;;;;11.78;100.00;99816.13;5052169;28;20423;-41
2023/10/30 08:27:34;;;;;;;18.33;14.20;;;;;;;11.83;100.00;99799.41;5044223;28;20504;-42
2023/10/30 08:30:05;;;;;;;14.07;13.00;;;;;;;11.91;100.00;99805.28;5052955;28;20455;-43
2023/10/30 08:32:33;;;;;;;13.87;12.90;;;;;;;11.93;100.00;99805.84;5052060;28;21018;-40
2023/10/30 08:35:02;;;;;;;16.73;15.33;;;;;;;12.03;100.00;99794.63;5051862;28;20434;-39
2023/10/30 08:37:30;;;;;;;14.90;13.40;;;;;;;12.05;100.00;99795.19;5052396;28;20451;-41
2023/10/30 08:39:58;;;;;;;14.27;13.17;;;;;;;12.10;100.00;99789.97;5051636;28;20475;-39
2023/10/30 08:42:25;;;;;;;14.07;13.10;;;;;;;12.17;100.00;99804.06;5052140;28;20949;-41
2023/10/30 08:44:53;;;;;;;14.67;13.60;;;;;;;12.23;100.00;99796.97;5051721;28;20939;-42
2023/10/30 08:47:23;;;;;;;14.80;13.60;;;;;;;12.24;100.00;99801.28;5050714;28;20462;-45
2023/10/30 08:49:51;;;;;;;13.97;13.07;;;;;;;12.23;100.00;99797.78;5051155;28;20456;-42
2023/10/30 08:52:19;;;;;;;14.43;13.10;;;;;;;12.27;100.00;99811.53;5051306;28;20442;-41
2023/10/30 08:54:47;;;;;;;14.80;13.67;;;;;;;12.38;100.00;99806.19;5051020;28;20522;-43
2023/10/30 08:57:19;;;;;;;15.43;14.03;;;;;;;12.47;100.00;99807.47;5048705;28;20455;-42
2023/10/30 08:59:47;;;;;;;15.10;13.63;;;;;;;12.56;100.00;99815.97;5050050;28;20990;-44
2023/10/30 09:02:15;;;;;;;14.57;13.30;;;;;;;12.60;100.00;99817.16;5051039;28;20439;-38
2023/10/30 09:04:44;;;;;;;14.77;13.50;;;;;;;12.58;100.00;99833.41;5050902;28;20436;-38
2023/10/30 09:07:12;;;;;;;14.50;13.20;;;;;;;12.57;100.00;99834.44;5051652;28;20451;-38
2023/10/30 09:09:40;;;;;;;13.63;12.30;;;;;;;12.65;100.00;99841.31;5050098;28;20481;-39
2023/10/30 09:12:09;;;;;;;14.77;13.63;;;;;;;12.72;100.00;99839.38;5050929;28;20438;-39
2023/10/30 09:14:36;;;;;;;16.10;14.47;;;;;;;12.74;100.00;99848.78;5042843;28;20431;-38
2023/10/30 09:17:08;;;;;;;14.70;13.43;;;;;;;12.74;100.00;99832.72;5050290;28;20461;-37
2023/10/30 09:19:36;;;;;;;16.00;14.30;;;;;;;12.91;100.00;99843.53;5050845;28;21021;-38
2023/10/30 09:22:05;;;;;;;16.53;13.30;;;;;;;13.02;100.00;99844.59;5052202;28;20516;-40
2023/10/30 09:24:33;;;;;;;15.93;13.43;;;;;;;13.08;100.00;99846.38;5050576;28;20423;-40
2023/10/30 09:27:01;;;;;;;13.83;12.70;;;;;;;13.05;100.00;99841.44;5050990;28;20443;-42
2023/10/30 09:29:28;;;;;;;17.80;14.40;;;;;;;13.11;100.00;99841.34;5050572;28;20455;-40
2023/10/30 09:31:59;;;;;;;15.03;13.77;;;;;;;13.15;100.00;99850.53;5051186;28;20512;-40
2023/10/30 09:34:27;;;;;;;13.90;13.10;;;;;;;13.17;100.00;99850.31;5051597;28;20463;-41
2023/10/30 09:36:54;;;;;;;14.30;13.23;;;;;;;13.04;100.00;99853.19;5051010;28;20454;-40
2023/10/30 09:39:23;;;;;;;14.57;13.27;;;;;;;13.23;100.00;99865.44;5049850;28;20455;-40
2023/10/30 09:41:54;;;;;;;13.97;12.73;;;;;;;13.25;100.00;99856.13;5050843;28;20475;-39
2023/10/30 09:44:22;;;;;;;14.20;13.10;;;;;;;13.19;100.00;99869.63;5050291;28;20455;-45
2023/10/30 09:46:51;;;;;;;14.70;13.50;;;;;;;13.13;100.00;99867.88;5049742;28;20516;-42
2023/10/30 09:49:20;;;;;;;14.77;13.37;;;;;;;13.21;100.00;99875.56;5048899;28;20459;-44
2023/10/30 09:51:50;;;;;;;14.43;13.53;;;;;;;13.37;100.00;99879.38;5049932;28;20437;-42
2023/10/30 09:54:19;;;;;;;14.20;12.90;;;;;;;13.44;100.00;99882.75;5049777;28;20465;-39
2023/10/30 09:56:49;;;;;;;14.60;12.57;;;;;;;13.47;100.00;99888.44;5049344;28;20514;-39
2023/10/30 09:59:17;;;;;;;15.90;14.50;;;;;;;13.68;100.00;99882.44;5049646;28;20483;-41
2023/10/30 10:01:45;;;;;;;13.33;12.00;;;;;;;13.72;100.00;99875.56;5040937;28;20499;-46
2023/10/30 10:04:13;;;;;;;12.73;11.83;;;;;;;13.67;100.00;99880.00;5048981;28;20513;-44
2023/10/30 10:06:42;;;;;;;14.30;12.93;;;;;;;13.53;100.00;99882.13;5048787;28;21214;-41
2023/10/30 10:09:10;;;;;;;15.43;13.97;;;;;;;13.51;100.00;99886.91;5047842;28;20475;-41
2023/10/30 10:11:37;;;;;;;15.20;14.00;;;;;;;13.47;100.00;99893.78;5049263;28;20427;-37
2023/10/30 10:14:07;;;;;;;16.00;14.80;;;;;;;13.55;100.00;99887.25;5049266;28;21137;-42
2023/10/30 10:16:36;;;;;;;15.93;14.70;;;;;;;13.64;100.00;99893.88;5049507;28;20978;-43
2023/10/30 10:19:19;;;;;;;14.77;13.50;;;;;;;13.84;100.00;99880.88;5049432;28;20482;-41
2023/10/30 10:21:49;;;;;;;12.93;11.77;;;;;;;13.97;100.00;99879.78;5049950;28;20467;-38
2023/10/30 10:24:28;;;;;;;14.53;13.33;;;;;;;14.12;100.00;99875.53;5048863;28;20955;-38
2023/10/30 10:27:02;;;;;;;13.60;12.90;;;;;;;14.16;100.00;99879.34;5041724;28;20494;-43
2023/10/30 10:29:31;;;;;;;14.10;13.00;;;;;;;14.10;100.00;99874.94;5048046;28;20486;-40
2023/10/30 10:31:59;;;;;;;13.83;13.00;;;;;;;14.09;100.00;99883.25;5048239;28;20520;-39
2023/10/30 10:34:30;;;;;;;12.53;11.70;;;;;;;14.06;100.00;99886.41;5048956;28;20442;-38
2023/10/30 10:36:59;;;;;;;13.57;12.30;;;;;;;13.96;100.00;99883.50;5048073;28;20462;-39
2023/10/30 10:39:27;;;;;;;14.20;12.97;;;;;;;13.98;100.00;99884.91;5048132;28;20482;-43
2023/10/30 10:41:57;;;;;;;14.47;13.20;;;;;;;14.11;100.00;99895.34;5048724;28;20466;-38
2023/10/30 10:44:25;;;;;;;15.17;14.13;;;;;;;14.09;100.00;99885.91;5050428;28;20441;-44
2023/10/30 10:46:59;;;;;;;14.70;13.47;;;;;;;14.16;100.00;99884.72;5050100;28;20448;-49
2023/10/30 10:49:26;;;;;;;15.17;13.73;;;;;;;14.31;100.00;99884.97;5051236;28;20835;-43
2023/10/30 10:51:56;;;;;;;14.73;13.60;;;;;;;14.26;100.00;99865.31;5050071;28;21160;-39
2023/10/30 10:54:27;;;;;;;14.60;13.20;;;;;;;14.17;100.00;99870.25;5050597;28;20832;-43
2023/10/30 10:56:57;;;;;;;14.80;13.60;;;;;;;14.09;100.00;99867.16;5049936;28;20512;-40
2023/10/30 10:59:28;;;;;;;14.43;13.43;;;;;;;14.19;100.00;99862.78;5048959;28;20528;-43
2023/10/30 11:02:00;;;;;;;13.37;12.40;;;;;;;14.25;100.00;99859.13;5050440;28;20481;-39
2023/10/30 11:04:29;;;;;;;14.00;13.10;;;;;;;14.32;100.00;99861.66;5050130;28;20435;-43
2023/10/30 11:07:02;;;;;;;13.60;12.50;;;;;;;14.24;100.00;99856.72;5050065;28;20453;-40
2023/10/30 11:09:41;;;;;;;13.20;11.93;;;;;;;14.25;100.00;99855.63;5050313;28;20482;-40
2023/10/30 11:12:20;;;;;;;14.77;12.30;;;;;;;14.38;100.00;99845.44;5050434;28;20802;-44
2023/10/30 11:14:56;;;;;;;12.80;11.77;;;;;;;14.52;100.00;99853.97;5049765;28;20537;-41
2023/10/30 11:17:27;;;;;;;15.70;14.13;;;;;;;14.52;100.00;99853.16;5049891;28;20454;-44